sensor_id;sensor_type;location;lat;lon;timestamp;P1;durP1;ratioP1;P2;durP2;ratioP2
1993;SDS011;998;49.906;10.908;2022-07-10T00:01:27;4.50;;;3.30;;
1993;SDS011;998;49.906;10.908;2022-07-10T00:03:55;4.20;;;3.03;;
1993;SDS011;998;49.906;10.908;2022-07-10T00:06:22;5.27;;;3.00;;
1993;SDS011;998;49.906;10.908;2022-07-10T00:08:49;3.93;;;2.70;;
1993;SDS011;998;49.906;10.908;2022-07-10T00:11:16;5.77;;;2.90;;
1993;SDS011;998;49.906;10.908;2022-07-10T00:13:43;8.07;;;2.80;;
1993;SDS011;998;49.906;10.908;2022-07-10T00:16:10;3.77;;;2.40;;
1993;SDS011;998;49.906;10.908;2022-07-10T00:18:36;6.03;;;2.60;;
1993;SDS011;998;49.906;10.908;2022-07-10T00:21:05;3.90;;;2.80;;
1993;SDS011;998;49.906;10.908;2022-07-10T00:23:32;4.67;;;2.77;;
1993;SDS011;998;49.906;10.908;2022-07-10T00:25:59;5.83;;;2.73;;
1993;SDS011;998;49.906;10.908;2022-07-10T00:28:25;4.90;;;3.20;;
1993;SDS011;998;49.906;10.908;2022-07-10T00:30:52;6.67;;;3.30;;
1993;SDS011;998;49.906;10.908;2022-07-10T00:33:19;4.43;;;2.43;;
1993;SDS011;998;49.906;10.908;2022-07-10T00:35:46;6.13;;;2.90;;
1993;SDS011;998;49.906;10.908;2022-07-10T00:38:14;5.10;;;3.20;;
1993;SDS011;998;49.906;10.908;2022-07-10T00:40:41;5.30;;;3.87;;
1993;SDS011;998;49.906;10.908;2022-07-10T00:43:08;6.80;;;3.27;;
1993;SDS011;998;49.906;10.908;2022-07-10T00:45:35;8.27;;;3.73;;
1993;SDS011;998;49.906;10.908;2022-07-10T00:48:02;7.53;;;3.43;;
1993;SDS011;998;49.906;10.908;2022-07-10T00:50:29;4.80;;;2.87;;
1993;SDS011;998;49.906;10.908;2022-07-10T00:52:57;7.90;;;3.13;;
1993;SDS011;998;49.906;10.908;2022-07-10T00:55:25;4.40;;;2.63;;
1993;SDS011;998;49.906;10.908;2022-07-10T00:57:52;6.60;;;3.13;;
1993;SDS011;998;49.906;10.908;2022-07-10T01:00:19;6.00;;;3.20;;
1993;SDS011;998;49.906;10.908;2022-07-10T01:02:46;5.83;;;3.60;;
1993;SDS011;998;49.906;10.908;2022-07-10T01:05:14;4.60;;;2.80;;
1993;SDS011;998;49.906;10.908;2022-07-10T01:07:40;5.63;;;2.93;;
1993;SDS011;998;49.906;10.908;2022-07-10T01:10:07;4.53;;;2.63;;
1993;SDS011;998;49.906;10.908;2022-07-10T01:12:36;5.73;;;3.00;;
1993;SDS011;998;49.906;10.908;2022-07-10T01:15:05;5.37;;;3.00;;
1993;SDS011;998;49.906;10.908;2022-07-10T01:17:33;5.97;;;2.70;;
1993;SDS011;998;49.906;10.908;2022-07-10T01:20:04;7.50;;;2.77;;
1993;SDS011;998;49.906;10.908;2022-07-10T01:22:33;5.17;;;3.30;;
1993;SDS011;998;49.906;10.908;2022-07-10T01:25:00;6.17;;;2.70;;
1993;SDS011;998;49.906;10.908;2022-07-10T01:27:27;5.50;;;2.50;;
1993;SDS011;998;49.906;10.908;2022-07-10T01:29:53;6.10;;;2.93;;
1993;SDS011;998;49.906;10.908;2022-07-10T01:32:20;5.30;;;2.70;;
1993;SDS011;998;49.906;10.908;2022-07-10T01:34:47;9.30;;;2.80;;
1993;SDS011;998;49.906;10.908;2022-07-10T01:37:14;10.63;;;4.03;;
1993;SDS011;998;49.906;10.908;2022-07-10T01:39:42;8.17;;;3.40;;
1993;SDS011;998;49.906;10.908;2022-07-10T01:42:09;3.70;;;2.30;;
1993;SDS011;998;49.906;10.908;2022-07-10T01:44:36;4.83;;;2.00;;
1993;SDS011;998;49.906;10.908;2022-07-10T01:47:03;7.10;;;3.20;;
1993;SDS011;998;49.906;10.908;2022-07-10T01:49:30;6.77;;;2.47;;
1993;SDS011;998;49.906;10.908;2022-07-10T01:51:58;6.60;;;2.00;;
1993;SDS011;998;49.906;10.908;2022-07-10T01:54:25;9.70;;;3.23;;
1993;SDS011;998;49.906;10.908;2022-07-10T01:56:53;5.67;;;2.50;;
1993;SDS011;998;49.906;10.908;2022-07-10T01:59:20;5.30;;;2.70;;
1993;SDS011;998;49.906;10.908;2022-07-10T02:01:47;3.40;;;2.20;;
1993;SDS011;998;49.906;10.908;2022-07-10T02:04:14;3.70;;;2.30;;
1993;SDS011;998;49.906;10.908;2022-07-10T02:06:59;5.00;;;2.13;;
1993;SDS011;998;49.906;10.908;2022-07-10T02:09:25;5.30;;;2.30;;
1993;SDS011;998;49.906;10.908;2022-07-10T02:11:54;4.63;;;2.40;;
1993;SDS011;998;49.906;10.908;2022-07-10T02:14:20;5.13;;;2.07;;
1993;SDS011;998;49.906;10.908;2022-07-10T02:16:47;6.30;;;1.97;;
1993;SDS011;998;49.906;10.908;2022-07-10T02:19:14;6.10;;;2.30;;
1993;SDS011;998;49.906;10.908;2022-07-10T02:21:41;4.83;;;2.10;;
1993;SDS011;998;49.906;10.908;2022-07-10T02:24:08;3.20;;;1.77;;
1993;SDS011;998;49.906;10.908;2022-07-10T02:26:35;4.33;;;2.00;;
1993;SDS011;998;49.906;10.908;2022-07-10T02:29:03;7.00;;;2.10;;
1993;SDS011;998;49.906;10.908;2022-07-10T02:31:30;7.60;;;2.03;;
1993;SDS011;998;49.906;10.908;2022-07-10T02:33:59;3.33;;;1.70;;
1993;SDS011;998;49.906;10.908;2022-07-10T02:36:26;7.03;;;2.03;;
1993;SDS011;998;49.906;10.908;2022-07-10T02:38:53;4.60;;;1.70;;
1993;SDS011;998;49.906;10.908;2022-07-10T02:41:20;6.83;;;2.10;;
1993;SDS011;998;49.906;10.908;2022-07-10T02:43:47;4.03;;;1.90;;
1993;SDS011;998;49.906;10.908;2022-07-10T02:46:15;8.20;;;1.70;;
1993;SDS011;998;49.906;10.908;2022-07-10T02:48:42;4.93;;;2.10;;
1993;SDS011;998;49.906;10.908;2022-07-10T02:51:09;8.10;;;2.10;;
1993;SDS011;998;49.906;10.908;2022-07-10T02:53:35;3.40;;;1.77;;
1993;SDS011;998;49.906;10.908;2022-07-10T02:56:02;7.27;;;1.77;;
1993;SDS011;998;49.906;10.908;2022-07-10T02:58:29;5.13;;;1.30;;
1993;SDS011;998;49.906;10.908;2022-07-10T03:00:56;5.03;;;1.83;;
1993;SDS011;998;49.906;10.908;2022-07-10T03:03:24;4.10;;;1.73;;
1993;SDS011;998;49.906;10.908;2022-07-10T03:05:51;3.17;;;1.30;;
1993;SDS011;998;49.906;10.908;2022-07-10T03:08:18;3.70;;;1.30;;
1993;SDS011;998;49.906;10.908;2022-07-10T03:10:45;2.77;;;1.33;;
1993;SDS011;998;49.906;10.908;2022-07-10T03:13:12;4.27;;;1.50;;
1993;SDS011;998;49.906;10.908;2022-07-10T03:15:39;4.13;;;1.60;;
1993;SDS011;998;49.906;10.908;2022-07-10T03:18:06;4.10;;;1.30;;
1993;SDS011;998;49.906;10.908;2022-07-10T03:20:34;3.80;;;1.20;;
1993;SDS011;998;49.906;10.908;2022-07-10T03:23:01;4.17;;;1.30;;
1993;SDS011;998;49.906;10.908;2022-07-10T03:25:28;7.47;;;1.37;;
1993;SDS011;998;49.906;10.908;2022-07-10T03:27:55;3.17;;;1.47;;
1993;SDS011;998;49.906;10.908;2022-07-10T03:30:21;4.67;;;1.60;;
1993;SDS011;998;49.906;10.908;2022-07-10T03:32:49;7.50;;;1.40;;
1993;SDS011;998;49.906;10.908;2022-07-10T03:35:15;2.50;;;1.27;;
1993;SDS011;998;49.906;10.908;2022-07-10T03:37:44;4.83;;;1.80;;
1993;SDS011;998;49.906;10.908;2022-07-10T03:40:11;2.80;;;1.30;;
1993;SDS011;998;49.906;10.908;2022-07-10T03:42:38;6.17;;;1.47;;
1993;SDS011;998;49.906;10.908;2022-07-10T03:45:05;4.30;;;1.70;;
1993;SDS011;998;49.906;10.908;2022-07-10T03:47:32;4.40;;;1.40;;
1993;SDS011;998;49.906;10.908;2022-07-10T03:49:59;2.80;;;1.53;;
1993;SDS011;998;49.906;10.908;2022-07-10T03:52:27;2.43;;;1.13;;
1993;SDS011;998;49.906;10.908;2022-07-10T03:54:55;3.00;;;1.20;;
1993;SDS011;998;49.906;10.908;2022-07-10T03:57:22;3.43;;;1.40;;
1993;SDS011;998;49.906;10.908;2022-07-10T04:00:07;3.23;;;1.33;;
1993;SDS011;998;49.906;10.908;2022-07-10T04:02:34;10.87;;;1.57;;
1993;SDS011;998;49.906;10.908;2022-07-10T04:05:04;5.33;;;1.53;;
1993;SDS011;998;49.906;10.908;2022-07-10T04:07:31;8.80;;;1.87;;
1993;SDS011;998;49.906;10.908;2022-07-10T04:09:59;3.70;;;1.67;;
1993;SDS011;998;49.906;10.908;2022-07-10T04:12:26;5.80;;;1.67;;
1993;SDS011;998;49.906;10.908;2022-07-10T04:14:53;4.23;;;1.33;;
1993;SDS011;998;49.906;10.908;2022-07-10T04:17:21;4.40;;;1.50;;
1993;SDS011;998;49.906;10.908;2022-07-10T04:19:48;3.30;;;1.53;;
1993;SDS011;998;49.906;10.908;2022-07-10T04:22:15;4.77;;;1.60;;
1993;SDS011;998;49.906;10.908;2022-07-10T04:24:42;3.20;;;1.20;;
1993;SDS011;998;49.906;10.908;2022-07-10T04:27:10;5.83;;;1.90;;
1993;SDS011;998;49.906;10.908;2022-07-10T04:29:37;3.07;;;1.40;;
1993;SDS011;998;49.906;10.908;2022-07-10T04:32:03;2.60;;;1.33;;
1993;SDS011;998;49.906;10.908;2022-07-10T04:34:31;5.37;;;1.80;;
1993;SDS011;998;49.906;10.908;2022-07-10T04:36:58;5.47;;;1.30;;
1993;SDS011;998;49.906;10.908;2022-07-10T04:39:25;2.53;;;1.20;;
1993;SDS011;998;49.906;10.908;2022-07-10T04:41:52;6.53;;;1.30;;
1993;SDS011;998;49.906;10.908;2022-07-10T04:44:20;3.17;;;0.90;;
1993;SDS011;998;49.906;10.908;2022-07-10T04:46:47;3.20;;;1.73;;
1993;SDS011;998;49.906;10.908;2022-07-10T04:49:14;2.80;;;1.23;;
1993;SDS011;998;49.906;10.908;2022-07-10T04:51:40;5.70;;;1.73;;
1993;SDS011;998;49.906;10.908;2022-07-10T04:54:07;4.67;;;1.47;;
1993;SDS011;998;49.906;10.908;2022-07-10T04:56:34;3.83;;;1.67;;
1993;SDS011;998;49.906;10.908;2022-07-10T04:59:01;4.50;;;1.23;;
1993;SDS011;998;49.906;10.908;2022-07-10T05:01:29;4.57;;;1.17;;
1993;SDS011;998;49.906;10.908;2022-07-10T05:03:56;6.53;;;1.90;;
1993;SDS011;998;49.906;10.908;2022-07-10T05:06:23;3.90;;;1.70;;
1993;SDS011;998;49.906;10.908;2022-07-10T05:08:50;3.97;;;1.57;;
1993;SDS011;998;49.906;10.908;2022-07-10T05:11:17;4.97;;;1.80;;
1993;SDS011;998;49.906;10.908;2022-07-10T05:13:43;2.93;;;1.30;;
1993;SDS011;998;49.906;10.908;2022-07-10T05:16:13;3.00;;;1.37;;
1993;SDS011;998;49.906;10.908;2022-07-10T05:18:41;3.50;;;1.60;;
1993;SDS011;998;49.906;10.908;2022-07-10T05:21:08;2.87;;;1.30;;
1993;SDS011;998;49.906;10.908;2022-07-10T05:23:35;2.60;;;1.00;;
1993;SDS011;998;49.906;10.908;2022-07-10T05:26:04;3.33;;;1.33;;
1993;SDS011;998;49.906;10.908;2022-07-10T05:28:31;2.57;;;1.00;;
1993;SDS011;998;49.906;10.908;2022-07-10T05:30:58;5.40;;;1.10;;
1993;SDS011;998;49.906;10.908;2022-07-10T05:33:25;3.00;;;1.27;;
1993;SDS011;998;49.906;10.908;2022-07-10T05:35:54;2.60;;;1.13;;
1993;SDS011;998;49.906;10.908;2022-07-10T05:38:21;3.30;;;1.00;;
1993;SDS011;998;49.906;10.908;2022-07-10T05:40:48;5.77;;;1.73;;
1993;SDS011;998;49.906;10.908;2022-07-10T05:43:15;4.20;;;1.20;;
1993;SDS011;998;49.906;10.908;2022-07-10T05:45:42;4.47;;;1.20;;
1993;SDS011;998;49.906;10.908;2022-07-10T05:48:09;4.80;;;1.33;;
1993;SDS011;998;49.906;10.908;2022-07-10T05:50:36;2.90;;;1.20;;
1993;SDS011;998;49.906;10.908;2022-07-10T05:53:04;4.00;;;1.37;;
1993;SDS011;998;49.906;10.908;2022-07-10T05:55:31;5.47;;;1.33;;
1993;SDS011;998;49.906;10.908;2022-07-10T05:57:58;6.20;;;1.13;;
1993;SDS011;998;49.906;10.908;2022-07-10T06:00:25;4.20;;;1.13;;
1993;SDS011;998;49.906;10.908;2022-07-10T06:02:52;4.10;;;1.27;;
1993;SDS011;998;49.906;10.908;2022-07-10T06:05:18;7.10;;;1.17;;
1993;SDS011;998;49.906;10.908;2022-07-10T06:07:46;3.00;;;1.07;;
1993;SDS011;998;49.906;10.908;2022-07-10T06:10:15;3.80;;;1.00;;
1993;SDS011;998;49.906;10.908;2022-07-10T06:12:42;4.23;;;1.50;;
1993;SDS011;998;49.906;10.908;2022-07-10T06:15:09;7.60;;;1.20;;
1993;SDS011;998;49.906;10.908;2022-07-10T06:17:36;4.70;;;1.50;;
1993;SDS011;998;49.906;10.908;2022-07-10T06:20:03;2.67;;;0.97;;
1993;SDS011;998;49.906;10.908;2022-07-10T06:22:31;5.23;;;1.10;;
1993;SDS011;998;49.906;10.908;2022-07-10T06:24:58;3.27;;;1.10;;
1993;SDS011;998;49.906;10.908;2022-07-10T06:27:27;4.63;;;1.20;;
1993;SDS011;998;49.906;10.908;2022-07-10T06:29:55;4.73;;;0.97;;
1993;SDS011;998;49.906;10.908;2022-07-10T06:32:22;3.17;;;1.07;;
1993;SDS011;998;49.906;10.908;2022-07-10T06:34:50;3.27;;;1.00;;
1993;SDS011;998;49.906;10.908;2022-07-10T06:37:17;4.57;;;1.20;;
1993;SDS011;998;49.906;10.908;2022-07-10T06:39:44;2.47;;;0.90;;
1993;SDS011;998;49.906;10.908;2022-07-10T06:42:12;3.40;;;1.33;;
1993;SDS011;998;49.906;10.908;2022-07-10T06:44:40;2.80;;;1.00;;
1993;SDS011;998;49.906;10.908;2022-07-10T06:47:07;3.17;;;1.03;;
1993;SDS011;998;49.906;10.908;2022-07-10T06:49:52;3.50;;;1.00;;
1993;SDS011;998;49.906;10.908;2022-07-10T06:52:20;4.77;;;1.10;;
1993;SDS011;998;49.906;10.908;2022-07-10T06:54:47;2.60;;;1.07;;
1993;SDS011;998;49.906;10.908;2022-07-10T06:57:14;2.80;;;1.00;;
1993;SDS011;998;49.906;10.908;2022-07-10T06:59:44;3.63;;;0.93;;
1993;SDS011;998;49.906;10.908;2022-07-10T07:02:11;2.53;;;0.93;;
1993;SDS011;998;49.906;10.908;2022-07-10T07:04:38;3.23;;;0.83;;
1993;SDS011;998;49.906;10.908;2022-07-10T07:07:05;2.97;;;0.90;;
1993;SDS011;998;49.906;10.908;2022-07-10T07:09:32;2.63;;;0.90;;
1993;SDS011;998;49.906;10.908;2022-07-10T07:11:58;5.20;;;1.00;;
1993;SDS011;998;49.906;10.908;2022-07-10T07:14:25;4.03;;;0.87;;
1993;SDS011;998;49.906;10.908;2022-07-10T07:16:54;2.90;;;0.90;;
1993;SDS011;998;49.906;10.908;2022-07-10T07:19:25;4.27;;;1.07;;
1993;SDS011;998;49.906;10.908;2022-07-10T07:21:57;4.00;;;0.80;;
1993;SDS011;998;49.906;10.908;2022-07-10T07:24:41;3.37;;;1.20;;
1993;SDS011;998;49.906;10.908;2022-07-10T07:27:09;2.60;;;1.83;;
1993;SDS011;998;49.906;10.908;2022-07-10T07:29:36;4.17;;;1.00;;
1993;SDS011;998;49.906;10.908;2022-07-10T07:32:05;4.10;;;0.97;;
1993;SDS011;998;49.906;10.908;2022-07-10T07:34:32;5.40;;;1.13;;
1993;SDS011;998;49.906;10.908;2022-07-10T07:36:59;2.40;;;0.80;;
1993;SDS011;998;49.906;10.908;2022-07-10T07:39:26;3.57;;;1.10;;
1993;SDS011;998;49.906;10.908;2022-07-10T07:41:52;2.50;;;1.10;;
1993;SDS011;998;49.906;10.908;2022-07-10T07:44:19;3.00;;;0.87;;
1993;SDS011;998;49.906;10.908;2022-07-10T07:46:46;3.47;;;0.90;;
1993;SDS011;998;49.906;10.908;2022-07-10T07:49:14;2.73;;;0.77;;
1993;SDS011;998;49.906;10.908;2022-07-10T07:51:41;2.97;;;0.90;;
1993;SDS011;998;49.906;10.908;2022-07-10T07:54:08;2.10;;;0.80;;
1993;SDS011;998;49.906;10.908;2022-07-10T07:56:35;3.40;;;1.07;;
1993;SDS011;998;49.906;10.908;2022-07-10T07:59:02;4.30;;;1.30;;
1993;SDS011;998;49.906;10.908;2022-07-10T08:01:29;3.90;;;1.10;;
1993;SDS011;998;49.906;10.908;2022-07-10T08:03:56;2.63;;;0.80;;
1993;SDS011;998;49.906;10.908;2022-07-10T08:06:24;4.30;;;0.90;;
1993;SDS011;998;49.906;10.908;2022-07-10T08:08:51;2.80;;;0.90;;
1993;SDS011;998;49.906;10.908;2022-07-10T08:11:19;3.70;;;1.20;;
1993;SDS011;998;49.906;10.908;2022-07-10T08:13:46;2.67;;;0.90;;
1993;SDS011;998;49.906;10.908;2022-07-10T08:16:13;3.63;;;0.90;;
1993;SDS011;998;49.906;10.908;2022-07-10T08:18:40;2.97;;;0.80;;
1993;SDS011;998;49.906;10.908;2022-07-10T08:21:06;3.00;;;0.90;;
1993;SDS011;998;49.906;10.908;2022-07-10T08:23:35;2.50;;;0.83;;
1993;SDS011;998;49.906;10.908;2022-07-10T08:26:01;4.70;;;1.00;;
1993;SDS011;998;49.906;10.908;2022-07-10T08:28:28;3.80;;;1.20;;
1993;SDS011;998;49.906;10.908;2022-07-10T08:30:55;6.00;;;1.00;;
1993;SDS011;998;49.906;10.908;2022-07-10T08:33:22;2.27;;;0.90;;
1993;SDS011;998;49.906;10.908;2022-07-10T08:35:49;2.50;;;0.80;;
1993;SDS011;998;49.906;10.908;2022-07-10T08:38:16;2.10;;;0.77;;
1993;SDS011;998;49.906;10.908;2022-07-10T08:40:44;4.17;;;0.80;;
1993;SDS011;998;49.906;10.908;2022-07-10T08:43:12;2.70;;;0.97;;
1993;SDS011;998;49.906;10.908;2022-07-10T08:45:39;2.63;;;0.93;;
1993;SDS011;998;49.906;10.908;2022-07-10T08:48:06;2.10;;;0.90;;
1993;SDS011;998;49.906;10.908;2022-07-10T08:50:37;2.53;;;0.90;;
1993;SDS011;998;49.906;10.908;2022-07-10T08:53:09;3.70;;;1.00;;
1993;SDS011;998;49.906;10.908;2022-07-10T08:55:41;5.60;;;0.93;;
1993;SDS011;998;49.906;10.908;2022-07-10T08:58:09;7.00;;;0.90;;
1993;SDS011;998;49.906;10.908;2022-07-10T09:00:38;2.40;;;0.70;;
1993;SDS011;998;49.906;10.908;2022-07-10T09:03:05;3.67;;;0.80;;
1993;SDS011;998;49.906;10.908;2022-07-10T09:05:33;2.27;;;0.67;;
1993;SDS011;998;49.906;10.908;2022-07-10T09:08:01;5.30;;;1.07;;
1993;SDS011;998;49.906;10.908;2022-07-10T09:10:28;3.60;;;1.27;;
1993;SDS011;998;49.906;10.908;2022-07-10T09:12:56;2.20;;;0.70;;
1993;SDS011;998;49.906;10.908;2022-07-10T09:15:29;2.70;;;0.80;;
1993;SDS011;998;49.906;10.908;2022-07-10T09:17:58;4.00;;;1.00;;
1993;SDS011;998;49.906;10.908;2022-07-10T09:20:27;2.43;;;0.80;;
1993;SDS011;998;49.906;10.908;2022-07-10T09:22:56;1.90;;;0.70;;
1993;SDS011;998;49.906;10.908;2022-07-10T09:25:29;4.40;;;1.00;;
1993;SDS011;998;49.906;10.908;2022-07-10T09:27:59;3.57;;;1.10;;
1993;SDS011;998;49.906;10.908;2022-07-10T09:30:38;2.97;;;1.00;;
1993;SDS011;998;49.906;10.908;2022-07-10T09:33:21;5.30;;;1.00;;
1993;SDS011;998;49.906;10.908;2022-07-10T09:35:54;3.07;;;1.03;;
1993;SDS011;998;49.906;10.908;2022-07-10T09:41:21;4.17;;;0.90;;
1993;SDS011;998;49.906;10.908;2022-07-10T09:43:49;3.87;;;1.10;;
1993;SDS011;998;49.906;10.908;2022-07-10T09:46:18;2.83;;;1.00;;
1993;SDS011;998;49.906;10.908;2022-07-10T09:48:46;4.93;;;1.30;;
1993;SDS011;998;49.906;10.908;2022-07-10T09:51:13;2.50;;;1.00;;
1993;SDS011;998;49.906;10.908;2022-07-10T09:53:41;3.27;;;0.90;;
1993;SDS011;998;49.906;10.908;2022-07-10T09:56:10;3.53;;;1.20;;
1993;SDS011;998;49.906;10.908;2022-07-10T09:58:38;3.00;;;0.97;;
1993;SDS011;998;49.906;10.908;2022-07-10T10:01:06;3.10;;;1.30;;
1993;SDS011;998;49.906;10.908;2022-07-10T10:03:36;3.73;;;1.07;;
1993;SDS011;998;49.906;10.908;2022-07-10T10:06:05;3.83;;;1.10;;
1993;SDS011;998;49.906;10.908;2022-07-10T10:08:44;3.00;;;1.00;;
1993;SDS011;998;49.906;10.908;2022-07-10T10:11:20;4.50;;;1.57;;
1993;SDS011;998;49.906;10.908;2022-07-10T10:13:49;3.27;;;0.90;;
1993;SDS011;998;49.906;10.908;2022-07-10T10:16:16;4.33;;;1.00;;
1993;SDS011;998;49.906;10.908;2022-07-10T10:18:47;2.30;;;1.07;;
1993;SDS011;998;49.906;10.908;2022-07-10T10:21:32;4.33;;;1.17;;
1993;SDS011;998;49.906;10.908;2022-07-10T10:24:00;3.87;;;0.80;;
1993;SDS011;998;49.906;10.908;2022-07-10T10:26:27;5.87;;;1.90;;
1993;SDS011;998;49.906;10.908;2022-07-10T10:28:56;4.43;;;1.20;;
1993;SDS011;998;49.906;10.908;2022-07-10T10:31:24;3.67;;;1.20;;
1993;SDS011;998;49.906;10.908;2022-07-10T10:33:55;3.53;;;1.20;;
1993;SDS011;998;49.906;10.908;2022-07-10T10:39:11;3.37;;;0.90;;
1993;SDS011;998;49.906;10.908;2022-07-10T10:41:40;2.60;;;1.10;;
1993;SDS011;998;49.906;10.908;2022-07-10T10:44:26;2.43;;;0.70;;
1993;SDS011;998;49.906;10.908;2022-07-10T10:47:04;4.17;;;0.90;;
1993;SDS011;998;49.906;10.908;2022-07-10T10:52:16;2.00;;;1.00;;
1993;SDS011;998;49.906;10.908;2022-07-10T10:55:00;2.00;;;0.70;;
1993;SDS011;998;49.906;10.908;2022-07-10T10:57:39;4.50;;;1.00;;
1993;SDS011;998;49.906;10.908;2022-07-10T11:00:14;2.13;;;0.83;;
1993;SDS011;998;49.906;10.908;2022-07-10T11:05:46;2.40;;;0.80;;
1993;SDS011;998;49.906;10.908;2022-07-10T11:08:16;3.17;;;0.90;;
1993;SDS011;998;49.906;10.908;2022-07-10T11:11:14;2.13;;;0.90;;
1993;SDS011;998;49.906;10.908;2022-07-10T11:14:06;3.03;;;1.00;;
1993;SDS011;998;49.906;10.908;2022-07-10T11:16:34;2.60;;;0.83;;
1993;SDS011;998;49.906;10.908;2022-07-10T11:19:01;2.60;;;1.03;;
1993;SDS011;998;49.906;10.908;2022-07-10T11:21:33;5.37;;;0.97;;
1993;SDS011;998;49.906;10.908;2022-07-10T11:24:12;4.13;;;1.00;;
1993;SDS011;998;49.906;10.908;2022-07-10T11:26:55;3.70;;;1.20;;
1993;SDS011;998;49.906;10.908;2022-07-10T11:29:25;2.93;;;1.40;;
1993;SDS011;998;49.906;10.908;2022-07-10T11:31:52;3.43;;;0.90;;
1993;SDS011;998;49.906;10.908;2022-07-10T11:34:20;4.10;;;1.00;;
1993;SDS011;998;49.906;10.908;2022-07-10T11:36:49;2.20;;;0.80;;
1993;SDS011;998;49.906;10.908;2022-07-10T11:39:16;2.63;;;0.70;;
1993;SDS011;998;49.906;10.908;2022-07-10T11:41:44;4.50;;;1.03;;
1993;SDS011;998;49.906;10.908;2022-07-10T11:44:13;5.40;;;1.20;;
1993;SDS011;998;49.906;10.908;2022-07-10T11:46:41;3.43;;;1.10;;
1993;SDS011;998;49.906;10.908;2022-07-10T11:49:09;3.00;;;1.07;;
1993;SDS011;998;49.906;10.908;2022-07-10T11:51:39;3.50;;;1.10;;
1993;SDS011;998;49.906;10.908;2022-07-10T11:54:08;3.03;;;1.00;;
1993;SDS011;998;49.906;10.908;2022-07-10T11:56:38;3.00;;;1.17;;
1993;SDS011;998;49.906;10.908;2022-07-10T11:59:07;2.30;;;0.87;;
1993;SDS011;998;49.906;10.908;2022-07-10T12:01:40;3.50;;;1.10;;
1993;SDS011;998;49.906;10.908;2022-07-10T12:04:08;2.90;;;1.30;;
1993;SDS011;998;49.906;10.908;2022-07-10T12:06:36;2.83;;;1.10;;
1993;SDS011;998;49.906;10.908;2022-07-10T12:09:06;3.13;;;0.90;;
1993;SDS011;998;49.906;10.908;2022-07-10T12:11:35;3.17;;;0.90;;
1993;SDS011;998;49.906;10.908;2022-07-10T12:14:12;3.70;;;1.10;;
1993;SDS011;998;49.906;10.908;2022-07-10T12:16:42;2.73;;;1.07;;
1993;SDS011;998;49.906;10.908;2022-07-10T12:19:11;3.10;;;0.90;;
1993;SDS011;998;49.906;10.908;2022-07-10T12:21:39;3.23;;;1.20;;
1993;SDS011;998;49.906;10.908;2022-07-10T12:24:09;3.17;;;1.00;;
1993;SDS011;998;49.906;10.908;2022-07-10T12:26:39;3.97;;;1.00;;
1993;SDS011;998;49.906;10.908;2022-07-10T12:29:11;4.30;;;1.67;;
1993;SDS011;998;49.906;10.908;2022-07-10T12:31:46;6.20;;;1.10;;
1993;SDS011;998;49.906;10.908;2022-07-10T12:34:14;2.87;;;0.80;;
1993;SDS011;998;49.906;10.908;2022-07-10T12:36:42;2.47;;;0.90;;
1993;SDS011;998;49.906;10.908;2022-07-10T12:39:14;2.20;;;0.80;;
1993;SDS011;998;49.906;10.908;2022-07-10T12:41:55;4.10;;;1.53;;
1993;SDS011;998;49.906;10.908;2022-07-10T12:44:32;3.60;;;1.10;;
1993;SDS011;998;49.906;10.908;2022-07-10T12:47:05;3.70;;;0.97;;
1993;SDS011;998;49.906;10.908;2022-07-10T12:49:52;4.23;;;1.10;;
1993;SDS011;998;49.906;10.908;2022-07-10T12:52:21;2.63;;;0.90;;
1993;SDS011;998;49.906;10.908;2022-07-10T12:55:04;5.97;;;1.50;;
1993;SDS011;998;49.906;10.908;2022-07-10T12:57:31;2.83;;;1.00;;
1993;SDS011;998;49.906;10.908;2022-07-10T13:00:02;4.27;;;1.00;;
1993;SDS011;998;49.906;10.908;2022-07-10T13:02:31;3.73;;;1.00;;
1993;SDS011;998;49.906;10.908;2022-07-10T13:04:58;2.90;;;0.90;;
1993;SDS011;998;49.906;10.908;2022-07-10T13:07:28;2.60;;;0.97;;
1993;SDS011;998;49.906;10.908;2022-07-10T13:09:59;2.30;;;0.80;;
1993;SDS011;998;49.906;10.908;2022-07-10T13:12:27;7.77;;;1.10;;
1993;SDS011;998;49.906;10.908;2022-07-10T13:14:53;2.77;;;0.90;;
1993;SDS011;998;49.906;10.908;2022-07-10T13:17:20;3.00;;;0.80;;
1993;SDS011;998;49.906;10.908;2022-07-10T13:19:48;6.40;;;1.40;;
1993;SDS011;998;49.906;10.908;2022-07-10T13:22:16;3.40;;;0.90;;
1993;SDS011;998;49.906;10.908;2022-07-10T13:24:43;7.27;;;1.30;;
1993;SDS011;998;49.906;10.908;2022-07-10T13:27:11;5.87;;;1.37;;
1993;SDS011;998;49.906;10.908;2022-07-10T13:29:38;3.17;;;1.50;;
1993;SDS011;998;49.906;10.908;2022-07-10T13:32:05;2.17;;;0.80;;
1993;SDS011;998;49.906;10.908;2022-07-10T13:34:33;2.40;;;0.83;;
1993;SDS011;998;49.906;10.908;2022-07-10T13:37:01;2.23;;;0.90;;
1993;SDS011;998;49.906;10.908;2022-07-10T13:39:28;3.17;;;1.10;;
1993;SDS011;998;49.906;10.908;2022-07-10T13:41:55;2.90;;;1.03;;
1993;SDS011;998;49.906;10.908;2022-07-10T13:44:24;3.03;;;0.90;;
1993;SDS011;998;49.906;10.908;2022-07-10T13:46:50;2.57;;;0.90;;
1993;SDS011;998;49.906;10.908;2022-07-10T13:49:17;4.43;;;1.37;;
1993;SDS011;998;49.906;10.908;2022-07-10T13:51:44;3.53;;;1.00;;
1993;SDS011;998;49.906;10.908;2022-07-10T13:54:11;4.00;;;1.30;;
1993;SDS011;998;49.906;10.908;2022-07-10T13:56:38;3.00;;;1.03;;
1993;SDS011;998;49.906;10.908;2022-07-10T13:59:05;2.87;;;0.80;;
1993;SDS011;998;49.906;10.908;2022-07-10T14:01:33;3.33;;;0.80;;
1993;SDS011;998;49.906;10.908;2022-07-10T14:04:00;3.37;;;0.93;;
1993;SDS011;998;49.906;10.908;2022-07-10T14:06:27;3.40;;;1.10;;
1993;SDS011;998;49.906;10.908;2022-07-10T14:08:54;3.30;;;0.93;;
1993;SDS011;998;49.906;10.908;2022-07-10T14:11:20;2.73;;;0.87;;
1993;SDS011;998;49.906;10.908;2022-07-10T14:13:47;2.20;;;0.90;;
1993;SDS011;998;49.906;10.908;2022-07-10T14:16:14;2.87;;;0.90;;
1993;SDS011;998;49.906;10.908;2022-07-10T14:18:42;2.53;;;0.90;;
1993;SDS011;998;49.906;10.908;2022-07-10T14:21:09;2.83;;;0.90;;
1993;SDS011;998;49.906;10.908;2022-07-10T14:23:38;7.73;;;1.10;;
1993;SDS011;998;49.906;10.908;2022-07-10T14:26:09;3.80;;;1.10;;
1993;SDS011;998;49.906;10.908;2022-07-10T14:28:36;4.07;;;0.97;;
1993;SDS011;998;49.906;10.908;2022-07-10T14:31:03;4.10;;;1.00;;
1993;SDS011;998;49.906;10.908;2022-07-10T14:33:31;2.17;;;0.87;;
1993;SDS011;998;49.906;10.908;2022-07-10T14:36:00;4.50;;;1.20;;
1993;SDS011;998;49.906;10.908;2022-07-10T14:38:27;3.80;;;1.07;;
1993;SDS011;998;49.906;10.908;2022-07-10T14:40:54;2.80;;;1.10;;
1993;SDS011;998;49.906;10.908;2022-07-10T14:43:21;4.50;;;1.87;;
1993;SDS011;998;49.906;10.908;2022-07-10T14:45:49;4.53;;;1.10;;
1993;SDS011;998;49.906;10.908;2022-07-10T14:48:16;3.87;;;1.67;;
1993;SDS011;998;49.906;10.908;2022-07-10T14:50:43;2.50;;;0.90;;
1993;SDS011;998;49.906;10.908;2022-07-10T14:53:11;2.80;;;0.87;;
1993;SDS011;998;49.906;10.908;2022-07-10T14:55:38;3.17;;;1.10;;
1993;SDS011;998;49.906;10.908;2022-07-10T14:58:05;3.13;;;1.00;;
1993;SDS011;998;49.906;10.908;2022-07-10T15:00:32;3.23;;;1.00;;
1993;SDS011;998;49.906;10.908;2022-07-10T15:03:01;4.80;;;1.00;;
1993;SDS011;998;49.906;10.908;2022-07-10T15:05:27;6.10;;;1.00;;
1993;SDS011;998;49.906;10.908;2022-07-10T15:07:54;4.03;;;1.20;;
1993;SDS011;998;49.906;10.908;2022-07-10T15:10:22;4.47;;;1.50;;
1993;SDS011;998;49.906;10.908;2022-07-10T15:12:49;2.40;;;0.83;;
1993;SDS011;998;49.906;10.908;2022-07-10T15:15:16;3.07;;;1.20;;
1993;SDS011;998;49.906;10.908;2022-07-10T15:17:44;7.40;;;1.87;;
1993;SDS011;998;49.906;10.908;2022-07-10T15:20:11;3.60;;;0.90;;
1993;SDS011;998;49.906;10.908;2022-07-10T15:22:39;2.60;;;1.13;;
1993;SDS011;998;49.906;10.908;2022-07-10T15:25:06;3.17;;;1.00;;
1993;SDS011;998;49.906;10.908;2022-07-10T15:27:35;3.63;;;1.10;;
1993;SDS011;998;49.906;10.908;2022-07-10T15:30:02;5.37;;;1.10;;
1993;SDS011;998;49.906;10.908;2022-07-10T15:32:29;3.80;;;0.90;;
1993;SDS011;998;49.906;10.908;2022-07-10T15:34:56;3.23;;;0.90;;